Time;durP1;ratioP1;P1;durP2;ratioP2;P2;SDS_P1;SDS_P2;PMS_P1;PMS_P2;Temp;Humidity;BMP_temperature;BMP_pressure;BME280_temperature;BME280_humidity;BME280_pressure;Samples;Min_cycle;Max_cycle;Signal;HPM_P1;HPM_P2
2023/08/02 00:00:33;;;;;;;4.68;2.40;;;19.10;99.90;;;;;;4899236;29;20556;-70
2023/08/02 00:07:16;;;;;;;2.88;2.58;;;19.40;99.90;;;;;;4883415;29;20139;-70
2023/08/02 00:09:51;;;;;;;9.38;3.35;;;19.30;99.90;;;;;;4947586;23;20050;-69
2023/08/02 00:12:17;;;;;;;8.63;3.20;;;;;;;;;;4917029;29;20048;-70
2023/08/02 00:14:43;;;;;;;4.43;2.60;;;18.80;99.90;;;;;;4917933;29;20688;-69
2023/08/02 00:17:08;;;;;;;6.65;3.40;;;19.10;99.90;;;;;;4917805;29;20039;-70
2023/08/02 00:19:36;;;;;;;6.00;3.10;;;18.90;99.90;;;;;;4934429;29;20035;-70
2023/08/02 00:22:01;;;;;;;9.52;3.08;;;19.30;99.90;;;;;;4917386;29;20046;-70
2023/08/02 00:24:27;;;;;;;9.68;4.72;;;19.50;99.90;;;;;;4917728;29;20036;-70
2023/08/02 00:26:52;;;;;;;6.18;3.10;;;18.70;99.90;;;;;;4918590;29;20039;-70
2023/08/02 00:29:18;;;;;;;12.15;4.50;;;18.90;99.90;;;;;;4917565;29;20040;-70
2023/08/02 00:31:44;;;;;;;11.07;4.00;;;19.20;99.90;;;;;;4934642;29;20071;-69
2023/08/02 00:34:09;;;;;;;10.32;4.43;;;19.00;99.90;;;;;;4917466;29;20043;-70
2023/08/02 00:36:35;;;;;;;14.88;4.60;;;19.50;99.90;;;;;;4917463;29;20051;-70
2023/08/02 00:39:01;;;;;;;7.25;4.00;;;;;;;;;;4901632;29;20126;-70
2023/08/02 00:41:27;;;;;;;10.98;4.38;;;;;;;;;;4917034;29;20039;-70
2023/08/02 00:43:52;;;;;;;10.55;4.78;;;18.80;99.90;;;;;;4917970;29;20118;-70
2023/08/02 00:46:20;;;;;;;9.40;4.30;;;19.40;99.90;;;;;;4901598;29;20554;-69
2023/08/02 00:48:46;;;;;;;8.93;4.20;;;19.30;99.90;;;;;;4917232;29;20118;-69
2023/08/02 00:51:15;;;;;;;9.85;4.03;;;19.10;99.90;;;;;;4917157;29;20059;-70
2023/08/02 00:53:42;;;;;;;7.88;4.38;;;18.90;99.90;;;;;;4917598;29;20055;-69
2023/08/02 00:56:09;;;;;;;9.85;4.57;;;18.80;99.90;;;;;;4917269;29;20052;-69
2023/08/02 00:58:34;;;;;;;7.63;4.70;;;19.30;99.90;;;;;;4917471;29;20051;-70
2023/08/02 01:01:06;;;;;;;11.63;4.95;;;;;;;;;;4916979;29;20031;-69
2023/08/02 01:03:34;;;;;;;7.93;4.20;;;19.10;99.90;;;;;;4917193;29;20048;-70
2023/08/02 01:06:08;;;;;;;9.15;4.60;;;18.70;99.90;;;;;;4917265;29;20047;-69
2023/08/02 01:08:38;;;;;;;6.07;4.70;;;19.30;99.90;;;;;;4934366;29;20048;-70
2023/08/02 01:11:03;;;;;;;13.20;4.35;;;19.30;99.90;;;;;;4916602;29;20046;-69
2023/08/02 01:13:31;;;;;;;6.85;3.72;;;19.10;99.90;;;;;;4934376;29;20530;-70
2023/08/02 01:15:58;;;;;;;7.50;3.83;;;18.90;99.90;;;;;;4917151;29;20063;-69
2023/08/02 01:18:24;;;;;;;7.40;4.32;;;18.90;99.90;;;;;;4919885;29;20047;-70
2023/08/02 01:20:50;;;;;;;16.30;5.40;;;18.80;99.90;;;;;;4920781;29;20044;-69
2023/08/02 01:23:15;;;;;;;10.40;4.35;;;19.00;99.90;;;;;;4904938;29;20098;-70
2023/08/02 01:25:45;;;;;;;6.90;3.80;;;19.40;99.90;;;;;;4920702;29;20035;-69
2023/08/02 01:28:20;;;;;;;10.40;4.78;;;18.70;99.90;;;;;;4920680;29;20122;-69
2023/08/02 01:30:47;;;;;;;7.53;4.68;;;19.30;99.90;;;;;;4937447;29;20127;-69
2023/08/02 01:33:14;;;;;;;6.90;4.13;;;19.20;99.90;;;;;;4920872;29;20106;-70
2023/08/02 01:35:40;;;;;;;9.35;3.90;;;18.80;99.90;;;;;;4920513;29;20091;-70
2023/08/02 01:38:06;;;;;;;7.90;4.40;;;19.20;99.90;;;;;;4920412;29;20126;-70
2023/08/02 01:40:31;;;;;;;7.75;4.38;;;19.20;99.90;;;;;;4920281;29;20039;-70
2023/08/02 01:42:58;;;;;;;7.35;4.32;;;;;;;;;;4920175;29;20423;-70
2023/08/02 01:45:24;;;;;;;8.32;4.45;;;;;;;;;;4920395;29;20185;-70
2023/08/02 01:47:51;;;;;;;10.80;4.85;;;;;;;;;;4920337;29;20090;-70
2023/08/02 01:50:17;;;;;;;6.85;5.00;;;19.40;99.90;;;;;;4920107;29;20121;-69
2023/08/02 01:52:43;;;;;;;12.10;5.57;;;19.00;99.90;;;;;;4920028;29;20087;-69
2023/08/02 01:55:08;;;;;;;8.25;4.75;;;19.30;99.90;;;;;;4937405;29;20046;-70
2023/08/02 01:57:34;;;;;;;5.43;4.63;;;;;;;;;;4920193;29;20483;-70
2023/08/02 02:00:00;;;;;;;7.78;4.15;;;;;;;;;;4920012;29;20079;-69
2023/08/02 02:02:26;;;;;;;9.25;4.00;;;18.80;99.90;;;;;;4919796;29;20054;-70
2023/08/02 02:04:51;;;;;;;8.90;5.00;;;18.80;99.90;;;;;;4919951;29;20039;-69
2023/08/02 02:07:17;;;;;;;10.65;4.90;;;19.00;99.90;;;;;;4937218;29;20522;-70
2023/08/02 02:09:43;;;;;;;9.23;4.43;;;;;;;;;;4919855;29;20051;-69
2023/08/02 02:12:09;;;;;;;4.85;3.67;;;;;;;;;;4903972;29;20043;-70
2023/08/02 02:14:35;;;;;;;6.80;4.55;;;19.00;99.90;;;;;;4919807;29;20044;-69
2023/08/02 02:17:01;;;;;;;7.00;3.88;;;19.20;99.90;;;;;;4919883;29;20095;-70
2023/08/02 02:19:26;;;;;;;6.68;4.00;;;19.00;99.90;;;;;;4919607;29;20090;-69
2023/08/02 02:21:53;;;;;;;8.43;4.68;;;19.00;99.90;;;;;;4919516;29;20043;-70
2023/08/02 02:24:18;;;;;;;11.75;4.50;;;19.10;99.90;;;;;;4919530;29;20187;-69
2023/08/02 02:26:44;;;;;;;10.73;4.10;;;19.10;99.90;;;;;;4936709;29;20586;-70
2023/08/02 02:29:10;;;;;;;7.82;4.35;;;;;;;;;;4918662;29;20044;-69
2023/08/02 02:31:36;;;;;;;10.45;4.10;;;;;;;;;;4919311;29;20107;-69
2023/08/02 02:34:02;;;;;;;9.52;3.83;;;;;;;;;;4919380;29;20043;-69
2023/08/02 02:36:28;;;;;;;11.90;4.30;;;19.30;99.90;;;;;;4936782;29;20131;-69
2023/08/02 02:38:54;;;;;;;12.30;4.32;;;;;;;;;;4919240;29;20122;-69
2023/08/02 02:41:20;;;;;;;12.70;4.22;;;19.20;99.90;;;;;;4919375;29;20047;-70
2023/08/02 02:43:45;;;;;;;7.38;3.60;;;18.90;99.90;;;;;;4919521;29;20040;-70
2023/08/02 02:46:11;;;;;;;15.88;4.47;;;19.00;99.90;;;;;;4919651;29;20082;-70
2023/08/02 02:48:36;;;;;;;9.10;4.20;;;18.60;99.90;;;;;;4919596;29;20046;-69
2023/08/02 02:51:02;;;;;;;13.07;4.85;;;18.80;99.90;;;;;;4935970;29;20046;-70
2023/08/02 02:53:28;;;;;;;9.38;4.03;;;19.20;99.90;;;;;;4919092;29;20415;-69
2023/08/02 02:55:54;;;;;;;12.10;5.15;;;19.20;99.90;;;;;;4936281;29;20045;-70
2023/08/02 02:58:19;;;;;;;9.63;4.43;;;19.30;99.90;;;;;;4903291;29;20040;-69
2023/08/02 03:00:45;;;;;;;9.13;4.95;;;19.10;99.90;;;;;;4919017;29;20068;-70
2023/08/02 03:03:10;;;;;;;13.40;4.18;;;19.10;99.90;;;;;;4935918;29;20036;-70
2023/08/02 03:05:38;;;;;;;10.43;5.30;;;18.80;99.90;;;;;;4919251;29;20048;-70
2023/08/02 03:08:04;;;;;;;15.90;5.03;;;18.90;99.90;;;;;;4918824;29;20043;-69
2023/08/02 03:10:29;;;;;;;15.82;4.80;;;18.70;99.90;;;;;;4918874;29;20036;-69
2023/08/02 03:12:55;;;;;;;14.68;4.45;;;;;;;;;;4918671;29;20067;-70
2023/08/02 03:15:21;;;;;;;12.32;4.75;;;19.20;99.90;;;;;;4919048;29;20092;-70
2023/08/02 03:17:47;;;;;;;10.13;4.38;;;;;;;;;;4918778;29;20260;-69
2023/08/02 03:20:13;;;;;;;9.45;4.30;;;19.10;99.90;;;;;;4902800;29;20051;-69
2023/08/02 03:22:38;;;;;;;11.77;4.22;;;18.60;99.90;;;;;;4918316;29;20051;-69
2023/08/02 03:25:04;;;;;;;13.45;5.68;;;18.80;99.90;;;;;;4918809;29;20067;-69
2023/08/02 03:27:30;;;;;;;17.90;6.88;;;18.80;99.90;;;;;;4918572;29;20043;-70
2023/08/02 03:29:56;;;;;;;10.75;4.57;;;19.20;99.90;;;;;;4902694;29;20043;-70
2023/08/02 03:32:21;;;;;;;9.05;5.03;;;18.90;99.90;;;;;;4918194;29;20421;-69
2023/08/02 03:34:47;;;;;;;16.00;6.05;;;18.80;99.90;;;;;;4902670;29;20514;-69
2023/08/02 03:37:13;;;;;;;16.45;4.85;;;19.10;99.90;;;;;;4918378;29;20123;-69
2023/08/02 03:39:38;;;;;;;17.70;5.63;;;19.10;99.90;;;;;;4935261;29;20510;-69
2023/08/02 03:42:04;;;;;;;10.68;4.65;;;19.00;99.90;;;;;;4917983;29;20039;-69
2023/08/02 03:44:30;;;;;;;17.98;5.82;;;18.60;99.90;;;;;;4918192;29;20048;-69
2023/08/02 03:46:55;;;;;;;10.90;4.78;;;19.00;99.90;;;;;;4935201;29;20048;-69
2023/08/02 03:49:22;;;;;;;11.45;5.28;;;19.40;99.90;;;;;;4918215;29;20135;-69
2023/08/02 03:51:48;;;;;;;16.95;6.20;;;19.00;99.90;;;;;;4935106;29;20411;-69
2023/08/02 03:54:13;;;;;;;13.43;5.47;;;19.20;99.90;;;;;;4935141;29;20043;-69
2023/08/02 03:56:39;;;;;;;19.45;7.85;;;;;;;;;;4918106;29;20044;-69
2023/08/02 03:59:05;;;;;;;15.32;5.78;;;18.80;99.90;;;;;;4917896;29;20103;-70
2023/08/02 04:01:31;;;;;;;15.95;6.72;;;18.70;99.90;;;;;;4917699;29;20503;-70
2023/08/02 04:03:56;;;;;;;24.05;7.00;;;19.20;99.90;;;;;;4917767;29;20135;-69
2023/08/02 04:06:22;;;;;;;17.27;7.15;;;;;;;;;;4918013;29;20051;-69
2023/08/02 04:08:48;;;;;;;14.18;5.78;;;;;;;;;;4917805;29;20044;-70
2023/08/02 04:11:14;;;;;;;18.25;6.28;;;19.20;99.90;;;;;;4917650;29;20133;-69
2023/08/02 04:13:39;;;;;;;20.77;6.40;;;19.10;99.90;;;;;;4934837;29;20039;-69
2023/08/02 04:16:05;;;;;;;15.20;6.32;;;18.60;99.90;;;;;;4902011;29;20050;-69
2023/08/02 04:18:31;;;;;;;11.75;6.28;;;19.10;99.90;;;;;;4917538;29;20043;-69
2023/08/02 04:20:59;;;;;;;13.70;6.55;;;;;;;;;;4917364;29;20411;-69
2023/08/02 04:23:26;;;;;;;23.40;6.55;;;19.00;99.90;;;;;;4934659;29;20538;-69
2023/08/02 04:25:52;;;;;;;15.70;6.57;;;18.90;99.90;;;;;;4901799;29;20054;-69
2023/08/02 04:28:17;;;;;;;14.57;6.15;;;18.50;99.90;;;;;;4917492;29;20415;-69
2023/08/02 04:30:48;;;;;;;11.60;6.10;;;19.10;99.90;;;;;;4917253;29;20047;-69
2023/08/02 04:33:14;;;;;;;28.85;8.25;;;18.90;99.90;;;;;;4934774;29;20040;-69
2023/08/02 04:35:40;;;;;;;20.63;6.13;;;;;;;;;;4917499;29;20066;-69
2023/08/02 04:38:06;;;;;;;19.80;6.85;;;;;;;;;;4917463;29;20043;-69
2023/08/02 04:40:32;;;;;;;23.33;7.57;;;;;;;;;;4934427;29;20042;-69
2023/08/02 04:42:58;;;;;;;17.92;7.22;;;;;;;;;;4934204;29;20463;-69
2023/08/02 04:45:24;;;;;;;13.60;6.70;;;;;;;;;;4936415;29;20056;-69
2023/08/02 04:47:49;;;;;;;17.27;6.75;;;18.90;99.90;;;;;;4917732;29;20035;-69
2023/08/02 04:50:15;;;;;;;17.55;7.40;;;18.50;99.90;;;;;;4917346;29;20095;-70
2023/08/02 04:52:40;;;;;;;13.75;6.65;;;18.40;99.90;;;;;;4918949;29;20039;-69
2023/08/02 04:55:06;;;;;;;16.33;6.25;;;18.40;99.90;;;;;;4921492;29;20067;-69
2023/08/02 04:57:32;;;;;;;15.85;6.72;;;;;;;;;;4938315;29;20055;-69
2023/08/02 04:59:58;;;;;;;16.65;8.18;;;;;;;;;;4920914;29;20426;-69
2023/08/02 05:02:33;;;;;;;13.98;6.40;;;;;;;;;;4921137;29;20130;-69
2023/08/02 05:05:00;;;;;;;14.30;6.88;;;18.60;99.90;;;;;;4921054;29;20054;-69
2023/08/02 05:07:26;;;;;;;17.45;6.40;;;18.90;99.90;;;;;;4938370;29;20066;-69
2023/08/02 05:09:51;;;;;;;14.30;6.72;;;18.70;99.90;;;;;;4921070;29;20499;-70
2023/08/02 05:12:17;;;;;;;14.35;6.50;;;18.70;99.90;;;;;;4920873;29;20046;-70
2023/08/02 05:14:42;;;;;;;17.02;6.72;;;18.50;99.90;;;;;;4921436;29;20511;-69
2023/08/02 05:17:08;;;;;;;16.35;7.10;;;18.60;99.90;;;;;;4938406;29;20086;-69
2023/08/02 05:19:34;;;;;;;18.13;7.00;;;18.80;99.90;;;;;;4920627;29;20185;-69
2023/08/02 05:22:00;;;;;;;15.40;7.07;;;18.70;99.90;;;;;;4920211;29;20039;-69
2023/08/02 05:24:26;;;;;;;13.98;6.82;;;;;;;;;;4920972;29;20410;-70
2023/08/02 05:26:52;;;;;;;15.02;6.80;;;;;;;;;;4921419;29;20567;-70
2023/08/02 05:29:18;;;;;;;15.18;6.45;;;;;;;;;;4920187;29;20039;-69
2023/08/02 05:31:44;;;;;;;15.50;6.80;;;;;;;;;;4937720;29;20126;-69
2023/08/02 05:34:10;;;;;;;12.07;6.78;;;;;;;;;;4919669;29;20075;-69
2023/08/02 05:36:35;;;;;;;14.18;6.43;;;18.90;99.90;;;;;;4920526;29;20043;-69
2023/08/02 05:39:02;;;;;;;15.52;6.93;;;;;;;;;;4920313;29;20459;-69
2023/08/02 05:41:28;;;;;;;16.67;7.38;;;;;;;;;;4920268;29;20047;-69
2023/08/02 05:43:53;;;;;;;16.02;7.25;;;18.60;99.90;;;;;;4919925;29;20863;-69
2023/08/02 05:46:19;;;;;;;16.85;6.97;;;18.70;99.90;;;;;;4920115;29;20035;-69
2023/08/02 05:48:52;;;;;;;10.80;6.40;;;18.80;99.90;;;;;;4937197;29;20027;-68
2023/08/02 05:51:17;;;;;;;;;;;18.70;99.90;;;;;;4904440;29;20086;-69
2023/08/02 05:53:46;;;;;;;12.07;6.53;;;19.20;99.90;;;;;;4914577;29;19922;-68
2023/08/02 05:56:11;;;;;;;17.30;7.05;;;18.90;99.90;;;;;;4919279;29;20510;-68
2023/08/02 05:58:37;;;;;;;17.48;6.93;;;;;;;;;;4936246;29;20040;-68
2023/08/02 06:01:03;;;;;;;18.27;8.35;;;;;;;;;;4917081;29;20051;-68
2023/08/02 06:03:29;;;;;;;10.52;7.18;;;19.20;99.90;;;;;;4932346;29;20091;-68
2023/08/02 06:05:55;;;;;;;9.10;5.82;;;;;;;;;;4897424;29;20607;-67
2023/08/02 06:08:21;;;;;;;13.07;6.65;;;19.50;99.90;;;;;;4905462;29;20044;-68
2023/08/02 06:14:21;;;;;;;;;;;;;;;;;;;;;
2023/08/02 06:27:29;;;;;;;17.13;7.07;;;;;;;;;;4812245;29;20051;-66
2023/08/02 06:30:02;;;;;;;16.67;7.10;;;;;;;;;;4836630;29;20073;-67
2023/08/02 06:32:32;;;;;;;13.18;6.05;;;;;;;;;;4904032;29;20176;-66
2023/08/02 06:35:15;;;;;;;15.00;6.85;;;19.40;99.90;;;;;;4879905;29;20420;-67
2023/08/02 06:37:44;;;;;;;11.63;6.22;;;;;;;;;;4900836;29;20497;-66
2023/08/02 06:40:21;;;;;;;15.55;6.13;;;;;;;;;;4885532;29;20511;-66
2023/08/02 06:42:47;;;;;;;14.15;7.00;;;;;;;;;;4885068;29;20067;-71
2023/08/02 06:45:16;;;;;;;22.88;7.03;;;;;;;;;;4899843;29;20036;-66
2023/08/02 06:47:46;;;;;;;12.00;6.78;;;;;;;;;;4900232;29;20044;-67
2023/08/02 06:50:19;;;;;;;15.73;6.20;;;19.70;99.90;;;;;;4900105;29;20047;-67
2023/08/02 06:52:49;;;;;;;16.27;6.90;;;;;;;;;;4900657;29;20051;-66
2023/08/02 06:55:25;;;;;;;17.33;7.07;;;19.90;99.90;;;;;;4900620;29;20048;-67
2023/08/02 06:57:51;;;;;;;13.75;6.72;;;;;;;;;;4885294;29;20083;-67
2023/08/02 07:00:20;;;;;;;13.38;6.15;;;;;;;;;;4917794;29;20044;-67
2023/08/02 07:02:49;;;;;;;13.85;6.20;;;;;;;;;;4885224;29;20044;-66
2023/08/02 07:05:23;;;;;;;16.63;8.27;;;;;;;;;;4885515;29;20040;-67
2023/08/02 07:07:49;;;;;;;12.93;6.78;;;19.80;99.90;;;;;;4900926;29;20512;-66
2023/08/02 07:10:18;;;;;;;11.98;6.15;;;19.50;99.90;;;;;;4898686;29;20079;-66
2023/08/02 07:13:05;;;;;;;12.55;6.15;;;;;;;;;;4884896;29;20119;-68
2023/08/02 07:15:39;;;;;;;11.57;6.10;;;19.90;99.90;;;;;;4916449;29;20094;-66
2023/08/02 07:18:06;;;;;;;17.23;6.22;;;;;;;;;;4916775;29;20128;-66
2023/08/02 07:20:45;;;;;;;15.85;5.72;;;19.50;99.90;;;;;;4900471;29;20300;-66
2023/08/02 07:23:18;;;;;;;12.02;5.57;;;19.40;99.90;;;;;;4900302;29;20370;-66
2023/08/02 07:26:10;;;;;;;10.02;5.32;;;19.80;99.90;;;;;;4884521;29;20059;-66
2023/08/02 07:28:37;;;;;;;11.95;6.30;;;;;;;;;;4900343;29;20131;-66
2023/08/02 07:31:11;;;;;;;12.05;5.68;;;19.60;99.90;;;;;;4884442;29;20044;-66
2023/08/02 07:33:40;;;;;;;9.98;5.10;;;;;;;;;;4900358;29;20036;-69
2023/08/02 07:36:19;;;;;;;15.73;5.97;;;19.40;99.90;;;;;;4899187;29;20040;-66
2023/08/02 07:38:51;;;;;;;12.55;5.85;;;;;;;;;;4882696;29;20047;-67
2023/08/02 07:41:18;;;;;;;14.40;5.70;;;;;;;;;;4914850;29;20036;-67
2023/08/02 07:43:45;;;;;;;9.70;5.90;;;;;;;;;;4898035;29;20051;-68
2023/08/02 07:46:27;;;;;;;9.55;5.75;;;;;;;;;;4884169;29;20096;-67
2023/08/02 07:48:55;;;;;;;14.23;5.43;;;;;;;;;;4899642;29;20044;-67
2023/08/02 07:51:27;;;;;;;11.27;4.95;;;19.90;99.90;;;;;;4899425;29;20047;-65
2023/08/02 07:53:58;;;;;;;8.13;4.95;;;19.30;99.90;;;;;;4900128;29;20051;-67
2023/08/02 07:56:27;;;;;;;7.95;4.82;;;19.20;99.90;;;;;;4899974;29;20067;-67
2023/08/02 07:58:53;;;;;;;10.48;5.07;;;;;;;;;;4916436;29;20094;-67
2023/08/02 08:01:26;;;;;;;6.40;4.32;;;19.90;99.90;;;;;;4883853;29;20175;-67
2023/08/02 08:03:55;;;;;;;9.20;4.50;;;;;;;;;;4899469;29;20127;-67
2023/08/02 08:06:23;;;;;;;9.88;5.20;;;;;;;;;;4915222;29;20071;-67
2023/08/02 08:08:50;;;;;;;6.78;4.35;;;;;;;;;;4883565;29;20048;-66
2023/08/02 08:11:16;;;;;;;10.35;5.00;;;19.70;99.90;;;;;;4916178;29;20063;-66
2023/08/02 08:13:42;;;;;;;10.00;5.07;;;19.10;99.90;;;;;;4884061;29;20079;-66
2023/08/02 08:16:29;;;;;;;9.50;4.93;;;19.20;99.90;;;;;;4899496;29;20103;-66
2023/08/02 08:18:55;;;;;;;8.10;4.35;;;19.40;99.90;;;;;;4899151;29;20071;-66
2023/08/02 08:21:21;;;;;;;8.02;5.05;;;;;;;;;;4914704;29;20119;-67
2023/08/02 08:23:49;;;;;;;13.93;4.53;;;19.30;99.90;;;;;;4883526;29;20044;-67
2023/08/02 08:26:18;;;;;;;12.57;4.80;;;19.10;99.90;;;;;;4883342;29;20042;-72
2023/08/02 08:28:44;;;;;;;11.05;4.63;;;;;;;;;;4914478;29;20424;-67
2023/08/02 08:31:11;;;;;;;10.13;5.40;;;;;;;;;;4914422;29;20115;-68
2023/08/02 08:33:37;;;;;;;18.17;5.57;;;19.50;99.90;;;;;;4915899;29;20386;-67
2023/08/02 08:36:03;;;;;;;9.13;5.13;;;;;;;;;;4912019;29;20068;-67
2023/08/02 08:38:30;;;;;;;13.30;5.35;;;;;;;;;;4903957;29;20079;-67
2023/08/02 08:40:56;;;;;;;9.68;5.18;;;19.40;99.90;;;;;;4883139;29;20058;-68
2023/08/02 08:43:27;;;;;;;8.82;4.88;;;19.30;99.90;;;;;;4883593;29;20040;-69
2023/08/02 08:45:53;;;;;;;10.52;4.63;;;;;;;;;;4883627;29;20404;-67
2023/08/02 08:48:19;;;;;;;9.98;5.10;;;;;;;;;;4883479;29;20080;-67
2023/08/02 08:50:47;;;;;;;8.27;5.40;;;19.20;99.90;;;;;;4898676;29;20037;-67
2023/08/02 08:53:30;;;;;;;9.68;4.78;;;19.50;99.90;;;;;;4899124;29;20048;-69
2023/08/02 08:55:56;;;;;;;8.40;4.45;;;;;;;;;;4883330;29;20048;-70
2023/08/02 08:58:22;;;;;;;8.00;4.68;;;;;;;;;;4896659;29;20579;-67
2023/08/02 09:00:49;;;;;;;11.18;4.75;;;;;;;;;;4899046;29;20052;-67
2023/08/02 09:03:15;;;;;;;8.02;3.92;;;19.20;99.90;;;;;;4883348;29;20044;-67
2023/08/02 09:05:42;;;;;;;8.52;4.85;;;;;;;;;;4899282;29;20072;-67
2023/08/02 09:08:08;;;;;;;7.38;4.65;;;19.10;99.90;;;;;;4915444;29;20075;-67
2023/08/02 09:10:34;;;;;;;9.35;5.32;;;;;;;;;;4916344;29;20042;-67
2023/08/02 09:13:00;;;;;;;11.27;6.18;;;;;;;;;;4915811;29;20500;-67
2023/08/02 09:15:27;;;;;;;10.40;5.43;;;;;;;;;;4898805;29;20048;-67
2023/08/02 09:17:54;;;;;;;13.35;5.90;;;19.10;99.90;;;;;;4914187;29;20040;-67
2023/08/02 09:20:22;;;;;;;9.55;5.22;;;19.20;99.90;;;;;;4914759;29;20199;-67
2023/08/02 09:22:49;;;;;;;9.82;5.30;;;;;;;;;;4883197;29;20243;-67
2023/08/02 09:25:27;;;;;;;9.70;5.07;;;19.70;99.90;;;;;;4914475;29;20079;-67
2023/08/02 09:27:55;;;;;;;9.98;6.25;;;19.20;99.90;;;;;;4915539;29;20036;-67
2023/08/02 09:30:29;;;;;;;9.77;6.15;;;19.90;99.90;;;;;;4898464;29;20047;-66
2023/08/02 09:33:02;;;;;;;8.95;6.85;;;19.90;99.90;;;;;;4915492;29;20040;-68
2023/08/02 09:35:32;;;;;;;8.15;5.85;;;19.70;99.90;;;;;;4898695;29;20072;-67
2023/08/02 09:37:58;;;;;;;11.32;5.43;;;20.00;99.90;;;;;;4915370;29;20040;-67
2023/08/02 09:40:35;;;;;;;7.50;5.80;;;19.60;99.90;;;;;;4918077;29;20047;-68
2023/08/02 09:43:04;;;;;;;7.85;5.43;;;;;;;;;;4883745;29;20047;-67
2023/08/02 09:45:32;;;;;;;6.75;5.40;;;20.00;99.90;;;;;;4908568;29;20601;-67
2023/08/02 09:47:59;;;;;;;6.82;5.00;;;;;;;;;;4897160;29;20413;-67
2023/08/02 09:50:25;;;;;;;8.20;5.47;;;;;;;;;;4899665;29;20489;-67
2023/08/02 09:52:51;;;;;;;9.00;6.47;;;;;;;;;;4909580;29;20120;-68
2023/08/02 09:55:17;;;;;;;9.85;5.70;;;;;;;;;;4882786;29;20504;-67
2023/08/02 09:57:45;;;;;;;7.90;5.90;;;20.20;99.90;;;;;;4899991;29;20048;-67
2023/08/02 10:00:12;;;;;;;6.95;5.85;;;;;;;;;;4898681;29;20036;-67
2023/08/02 10:02:38;;;;;;;10.13;5.55;;;19.40;99.90;;;;;;4907553;29;20045;-67
2023/08/02 10:05:12;;;;;;;6.95;4.68;;;19.60;99.90;;;;;;4898073;29;20049;-68
2023/08/02 10:07:54;;;;;;;10.38;5.38;;;20.10;99.90;;;;;;4883016;29;20449;-67
2023/08/02 10:10:26;;;;;;;7.95;5.43;;;20.00;99.90;;;;;;4906940;29;20036;-68
2023/08/02 10:12:59;;;;;;;5.40;4.70;;;20.20;99.90;;;;;;4898600;29;20052;-68
2023/08/02 10:15:26;;;;;;;;;;;19.90;99.90;;;;;;4882816;29;20103;-67
2023/08/02 10:17:54;;;;;;;8.80;4.50;;;20.10;99.90;;;;;;4900752;29;19970;-67
2023/08/02 10:20:20;;;;;;;6.05;4.88;;;;;;;;;;4896189;29;20131;-66
2023/08/02 10:22:48;;;;;;;8.57;4.68;;;19.90;99.90;;;;;;4907172;29;20044;-67
2023/08/02 10:25:16;;;;;;;5.10;4.00;;;;;;;;;;4885017;29;20047;-67
2023/08/02 10:27:44;;;;;;;6.25;4.32;;;20.20;99.90;;;;;;4898405;29;20508;-69
2023/08/02 10:30:11;;;;;;;5.15;3.70;;;;;;;;;;4883903;29;20045;-67
2023/08/02 10:32:37;;;;;;;4.20;3.30;;;19.90;99.90;;;;;;4884522;29;20040;-68
2023/08/02 10:35:03;;;;;;;6.22;3.63;;;20.20;99.90;;;;;;4908011;29;20047;-68
2023/08/02 10:37:58;;;;;;;4.13;3.28;;;19.60;99.90;;;;;;4882904;29;20039;-68
2023/08/02 10:40:25;;;;;;;5.88;3.28;;;;;;;;;;4893016;29;20067;-68
2023/08/02 10:43:05;;;;;;;3.58;2.70;;;20.50;99.90;;;;;;4899905;29;20044;-67
2023/08/02 10:45:31;;;;;;;5.03;2.90;;;19.60;99.90;;;;;;4894968;29;20047;-67
2023/08/02 10:48:25;;;;;;;5.20;3.10;;;20.00;99.90;;;;;;4900930;29;20048;-69
2023/08/02 10:50:52;;;;;;;3.85;2.55;;;;;;;;;;4897285;29;20139;-68
2023/08/02 10:53:35;;;;;;;;;;;;;;;;;;;;;
2023/08/02 10:56:16;;;;;;;3.10;2.80;;;20.00;99.90;;;;;;4897235;29;20048;-68
2023/08/02 10:58:50;;;;;;;3.60;2.90;;;20.40;99.90;;;;;;4896619;29;20508;-68
2023/08/02 11:01:16;;;;;;;3.08;2.20;;;;;;;;;;4889000;29;20047;-68
2023/08/02 11:03:43;;;;;;;2.65;2.22;;;;;;;;;;4894098;29;20036;-67
2023/08/02 11:06:29;;;;;;;2.05;1.80;;;20.10;99.90;;;;;;4896987;29;20100;-67
2023/08/02 11:08:55;;;;;;;2.28;2.08;;;;;;;;;;4894045;29;20036;-67
2023/08/02 11:11:32;;;;;;;3.35;1.98;;;20.20;99.90;;;;;;4883862;29;20136;-67
2023/08/02 11:13:58;;;;;;;2.40;2.20;;;20.20;99.90;;;;;;4886269;29;20150;-68
2023/08/02 11:16:25;;;;;;;2.47;1.95;;;;;;;;;;4899719;29;20552;-70
2023/08/02 11:18:51;;;;;;;2.78;2.03;;;;;;;;;;4895318;29;20106;-68
2023/08/02 11:21:20;;;;;;;3.35;1.95;;;;;;;;;;4884664;29;20052;-68
2023/08/02 11:23:49;;;;;;;2.92;1.90;;;20.80;99.90;;;;;;4888805;29;20095;-68
2023/08/02 11:26:18;;;;;;;2.20;1.83;;;20.60;99.90;;;;;;4908447;29;20058;-67
2023/08/02 11:28:49;;;;;;;2.33;2.03;;;21.10;99.90;;;;;;4878495;29;20548;-67
2023/08/02 11:31:15;;;;;;;2.80;2.20;;;;;;;;;;4881416;29;20449;-68
2023/08/02 11:33:42;;;;;;;2.45;2.20;;;21.30;99.90;;;;;;4882083;29;20135;-69
2023/08/02 11:36:16;;;;;;;2.05;1.85;;;21.10;99.90;;;;;;4881772;29;20044;-68
2023/08/02 11:38:42;;;;;;;2.75;2.03;;;;;;;;;;4869694;29;20484;-67
2023/08/02 11:41:19;;;;;;;2.35;2.15;;;21.70;99.90;;;;;;4895896;29;20569;-67
2023/08/02 11:43:56;;;;;;;;;;;;;;;;;;;;;
2023/08/02 11:46:33;;;;;;;2.42;2.22;;;22.00;99.90;;;;;;4906544;29;20059;-68
2023/08/02 11:49:09;;;;;;;2.78;2.08;;;22.00;99.90;;;;;;4884767;29;20036;-67
2023/08/02 11:51:42;;;;;;;2.20;2.00;;;22.20;99.90;;;;;;4884107;29;20051;-68
2023/08/02 11:54:18;;;;;;;2.92;2.10;;;21.50;99.90;;;;;;4878487;29;20053;-67
2023/08/02 11:56:44;;;;;;;2.53;1.73;;;;;;;;;;4865419;29;20163;-67
2023/08/02 11:59:16;;;;;;;3.40;2.53;;;22.40;99.90;;;;;;4881226;29;20091;-68
2023/08/02 12:01:48;;;;;;;2.30;1.67;;;22.40;99.90;;;;;;4880454;29;20056;-67
2023/08/02 12:04:17;;;;;;;2.97;2.03;;;;;;;;;;4865624;29;20041;-68
2023/08/02 12:06:51;;;;;;;2.13;1.92;;;21.90;99.90;;;;;;4880603;29;20049;-68
2023/08/02 12:09:38;;;;;;;3.90;2.22;;;22.50;99.90;;;;;;4871256;29;20043;-67
2023/08/02 12:12:05;;;;;;;2.38;2.17;;;21.90;99.90;;;;;;4898384;29;20125;-69
2023/08/02 12:14:31;;;;;;;3.17;2.60;;;;;;;;;;4881347;29;20059;-69
2023/08/02 12:17:21;;;;;;;2.13;1.80;;;22.30;99.90;;;;;;4914644;29;20056;-69
2023/08/02 12:19:51;;;;;;;2.60;2.40;;;21.60;99.90;;;;;;4894683;29;20078;-68
2023/08/02 12:22:22;;;;;;;2.72;2.40;;;22.70;99.90;;;;;;4906219;29;20044;-69
2023/08/02 12:25:19;;;;;;;4.25;2.95;;;22.10;99.90;;;;;;4883244;29;20080;-68
2023/08/02 12:28:10;;;;;;;3.47;2.97;;;22.30;99.90;;;;;;4899106;29;20465;-69
2023/08/02 12:31:00;;;;;;;3.47;3.17;;;23.20;99.90;;;;;;4897209;29;20483;-68
2023/08/02 12:33:26;;;;;;;4.05;3.75;;;;;;;;;;4902294;29;20404;-68
2023/08/02 12:35:59;;;;;;;4.75;3.42;;;22.70;99.90;;;;;;4906699;29;20118;-68
2023/08/02 12:38:30;;;;;;;;;;;23.00;99.90;;;;;;4917937;29;20044;-68
2023/08/02 12:41:03;;;;;;;4.30;3.40;;;23.40;99.90;;;;;;4902290;29;19923;-68
2023/08/02 12:43:51;;;;;;;5.15;2.83;;;23.70;99.90;;;;;;4881956;29;20052;-69
2023/08/02 12:46:20;;;;;;;4.47;3.58;;;23.80;99.90;;;;;;4897717;29;20504;-68
2023/08/02 12:48:51;;;;;;;3.35;3.05;;;23.50;99.90;;;;;;4883757;29;20130;-69
2023/08/02 12:51:18;;;;;;;3.92;3.28;;;;;;;;;;4913991;29;20122;-68
2023/08/02 12:53:46;;;;;;;5.15;3.58;;;23.30;99.90;;;;;;4888407;29;20044;-68
2023/08/02 12:56:38;;;;;;;;;;;;;;;;;;;;;
2023/08/02 12:59:25;;;;;;;3.50;3.20;;;;;;;;;;4894062;29;20059;-69
2023/08/02 13:01:57;;;;;;;3.75;3.45;;;23.70;99.90;;;;;;4882416;29;20497;-69
2023/08/02 13:04:27;;;;;;;4.78;2.88;;;;;;;;;;4898441;29;20079;-68
2023/08/02 13:06:53;;;;;;;3.58;2.55;;;;;;;;;;4912739;29;20115;-69
2023/08/02 13:09:19;;;;;;;2.72;2.53;;;24.20;99.90;;;;;;4880900;29;20032;-69
2023/08/02 13:11:45;;;;;;;4.70;2.00;;;;;;;;;;4880262;29;20039;-69
2023/08/02 13:14:19;;;;;;;2.47;2.20;;;23.90;99.90;;;;;;4896021;29;20048;-71
2023/08/02 13:17:02;;;;;;;;;;;;;;;;;;;;;
2023/08/02 13:19:32;;;;;;;4.80;2.08;;;23.90;99.90;;;;;;4899120;29;20041;-68
2023/08/02 13:21:58;;;;;;;2.97;1.90;;;23.40;99.90;;;;;;4897951;29;20583;-68
2023/08/02 13:24:28;;;;;;;3.78;2.17;;;23.90;99.90;;;;;;4898171;29;20465;-68
2023/08/02 13:27:04;;;;;;;8.82;2.38;;;24.00;99.90;;;;;;4898604;29;20581;-68
2023/08/02 13:29:42;;;;;;;3.25;1.85;;;24.00;99.90;;;;;;4899508;29;20041;-68
2023/08/02 13:32:09;;;;;;;2.30;1.63;;;;;;;;;;4884168;29;20466;-69
2023/08/02 13:34:37;;;;;;;8.27;2.55;;;24.70;99.90;;;;;;4899540;29;20052;-69
2023/08/02 13:37:07;;;;;;;2.72;1.50;;;24.80;99.90;;;;;;4883532;29;20045;-69
2023/08/02 13:39:58;;;;;;;9.85;1.65;;;24.60;99.90;;;;;;4899214;29;20087;-69
2023/08/02 13:42:25;;;;;;;3.40;1.70;;;;;;;;;;4883221;29;20053;-69
2023/08/02 13:44:59;;;;;;;3.63;1.42;;;25.00;99.90;;;;;;4883533;29;20092;-69
2023/08/02 13:47:43;;;;;;;6.03;1.75;;;25.00;99.90;;;;;;4899120;29;20052;-69
2023/08/02 13:50:33;;;;;;;8.23;1.52;;;25.70;99.90;;;;;;4883464;29;20489;-69
2023/08/02 13:52:59;;;;;;;4.55;1.40;;;;;;;;;;4868940;29;20041;-69